Old Tappan, New Jersey
Current Conditions -  °F | °C
As of 2:51 PM on Friday 24 Oct 2014 (Local Time) from KTEB Reporting Station
Overcast Overcast  
Wind Chill: 17°   Ceiling: 4700
Heat Index: 17°   Visibility: 10mi
Dew Point:   Wind: 8mph
Humidity: 48%   Direction: 330°NNW
Pressure: 29.76"   Gusts: NA
Location:  41.0025°N, 74.0303°W
Report Text: KTEB 241851Z 33007KT 10SM OVC047 17/06 A2976 RMK AO2 SLP077 T01720061
Loading
Personal Weather Stations






























Interactive Weather Map
Tropical Storm Tracking
New forecast layout! Learn more

10-Day Weather Forecast

Advertisements
Track Severe Weather on mobile